Poperinge, Belgium
Current Conditions -  °F | °C
As of 5:22 AM on Wednesday 26 Nov 2014 (Local Time) from EBFN Reporting Station
Broken Clouds Broken Clouds  
Wind Chill: 39°   Ceiling: 12000
Heat Index: 43°   Visibility: 6mi
Dew Point: 39°   Wind: 7mph
Humidity: 87%   Direction: 100°E
Pressure: 29.94"   Gusts: NA
Location:  50.85°N, 2.73°E
Report Text: EBFN 260422Z 10006KT 9999 SCT060 SCT090 BKN120 06/04 Q1014 BLU BLU TEMPO WHT
Loading
Personal Weather Stations






























Interactive Weather Map New forecast layout! Learn more

10-Day Weather Forecast

Advertisements
Track Severe Weather on mobile